Time;durP1;ratioP1;P1;durP2;ratioP2;P2;SDS_P1;SDS_P2;PMS_P1;PMS_P2;Temp;Humidity;BMP_temperature;BMP_pressure;BME280_temperature;BME280_humidity;BME280_pressure;Samples;Min_cycle;Max_cycle;Signal;HPM_P1;HPM_P2
2021/03/03 00:01:05;;;;;;;23.38;11.60;;;;;;;2.40;100.00;100024.42;1814185;78;21139;-66
2021/03/03 00:03:39;;;;;;;18.55;11.10;;;;;;;2.37;100.00;100029.09;1824043;78;20934;-66
2021/03/03 00:06:11;;;;;;;17.80;10.70;;;;;;;2.36;100.00;100024.68;1822017;78;21444;-65
2021/03/03 00:08:42;;;;;;;21.17;11.15;;;;;;;2.31;100.00;100019.70;1823607;78;21333;-66
2021/03/03 00:11:12;;;;;;;19.50;11.45;;;;;;;2.27;100.00;100020.41;1823935;78;20886;-65
2021/03/03 00:13:42;;;;;;;19.10;10.78;;;;;;;2.24;100.00;100021.58;1814074;78;20922;-65
2021/03/03 00:16:12;;;;;;;18.45;10.98;;;;;;;2.19;100.00;100024.41;1792610;78;20930;-68
2021/03/03 00:18:42;;;;;;;20.65;10.30;;;;;;;2.20;100.00;100026.19;1820080;78;21519;-67
2021/03/03 00:21:14;;;;;;;17.52;10.88;;;;;;;2.17;100.00;100029.97;1824116;78;21480;-66
2021/03/03 00:23:44;;;;;;;20.10;12.07;;;;;;;2.15;100.00;100021.21;1826078;78;21559;-67
2021/03/03 00:26:15;;;;;;;19.17;11.10;;;;;;;2.12;100.00;100019.78;1816063;79;21580;-63
2021/03/03 00:28:46;;;;;;;18.48;10.98;;;;;;;2.10;100.00;100024.92;1814522;79;21119;-63
2021/03/03 00:31:16;;;;;;;19.87;11.10;;;;;;;2.07;100.00;100020.89;1817963;79;21021;-63
2021/03/03 00:33:47;;;;;;;19.95;11.40;;;;;;;2.04;100.00;100023.78;1805418;79;21149;-63
2021/03/03 00:36:20;;;;;;;;;;;;;;;2.01;100.00;100029.75;1782891;80;20970;-62
2021/03/03 00:38:51;;;;;;;18.82;11.73;;;;;;;1.96;100.00;100026.06;1750009;80;20268;-62
2021/03/03 00:41:21;;;;;;;21.15;12.15;;;;;;;1.94;100.00;100029.02;1749301;80;21128;-60
2021/03/03 00:43:52;;;;;;;21.20;12.15;;;;;;;1.90;100.00;100029.71;1783652;79;21041;-64
2021/03/03 00:46:23;;;;;;;20.05;11.30;;;;;;;1.86;100.00;100024.76;1748272;81;21205;-64
2021/03/03 00:48:55;;;;;;;19.83;11.90;;;;;;;1.86;100.00;100026.06;1782678;79;21157;-64
2021/03/03 00:51:26;;;;;;;23.45;13.22;;;;;;;1.89;100.00;100024.92;1800397;79;20998;-63
2021/03/03 00:54:07;;;;;;;19.87;12.37;;;;;;;1.93;100.00;100027.24;1824263;77;22638;-64
2021/03/03 00:56:45;;;;;;;21.33;12.20;;;;;;;1.89;100.00;100028.83;1765026;79;20970;-64
2021/03/03 00:59:15;;;;;;;20.43;11.97;;;;;;;1.87;100.00;100030.44;1799816;79;22472;-64
2021/03/03 01:01:53;;;;;;;23.60;12.65;;;;;;;1.90;100.00;100034.92;1761031;79;21599;-64
2021/03/03 01:04:22;;;;;;;18.62;11.73;;;;;;;1.92;100.00;100034.98;1777436;78;21517;-63
2021/03/03 01:06:54;;;;;;;23.80;12.55;;;;;;;1.93;100.00;100037.64;1808831;78;21104;-64
2021/03/03 01:09:28;;;;;;;26.55;13.75;;;;;;;1.93;100.00;100041.55;1803018;79;21552;-63
2021/03/03 01:11:58;;;;;;;20.55;12.65;;;;;;;1.89;100.00;100039.23;1766671;79;21190;-63
2021/03/03 01:14:29;;;;;;;21.45;12.40;;;;;;;1.86;100.00;100034.28;1772658;80;20934;-64
2021/03/03 01:17:04;;;;;;;22.27;12.40;;;;;;;1.85;100.00;100035.98;1777655;79;21492;-64
2021/03/03 01:19:37;;;;;;;20.30;12.45;;;;;;;1.86;100.00;100036.87;1797384;79;21468;-65
2021/03/03 01:22:08;;;;;;;19.02;11.97;;;;;;;1.84;100.00;100038.11;1786379;79;21566;-64
2021/03/03 01:24:38;;;;;;;20.30;11.33;;;;;;;1.83;100.00;100039.35;1779085;79;21360;-64
2021/03/03 01:27:08;;;;;;;19.75;12.20;;;;;;;1.82;100.00;100044.08;1773618;79;21014;-64
2021/03/03 01:29:39;;;;;;;26.68;13.30;;;;;;;1.83;100.00;100040.23;1799269;79;21012;-64
2021/03/03 01:32:10;;;;;;;21.10;12.45;;;;;;;1.81;100.00;100040.59;1796569;78;21536;-64
2021/03/03 01:34:41;;;;;;;21.15;12.70;;;;;;;1.78;100.00;100041.75;1785760;79;20990;-64
2021/03/03 01:37:14;;;;;;;20.32;11.70;;;;;;;1.74;100.00;100042.45;1777628;79;21397;-64
2021/03/03 01:39:47;;;;;;;24.50;12.43;;;;;;;1.74;100.00;100041.56;1779017;79;21475;-63
2021/03/03 01:42:17;;;;;;;20.00;12.00;;;;;;;1.74;100.00;100042.86;1777666;79;20883;-63
2021/03/03 01:44:54;;;;;;;20.02;12.07;;;;;;;1.71;100.00;100049.23;1779552;79;21583;-65
2021/03/03 01:47:28;;;;;;;21.93;13.00;;;;;;;1.70;100.00;100046.16;1779591;79;21662;-63
2021/03/03 01:49:58;;;;;;;21.23;12.90;;;;;;;1.69;100.00;100049.58;1789042;79;21262;-63
2021/03/03 01:52:28;;;;;;;18.27;12.15;;;;;;;1.70;100.00;100053.95;1808409;77;21117;-64
2021/03/03 01:54:59;;;;;;;19.20;12.53;;;;;;;1.69;100.00;100058.27;1797455;78;21666;-63
2021/03/03 01:57:33;;;;;;;19.65;11.73;;;;;;;1.67;100.00;100050.81;1775195;79;21184;-64
2021/03/03 02:00:07;;;;;;;18.82;12.05;;;;;;;1.66;100.00;100059.84;1769613;79;21493;-64
2021/03/03 02:02:44;;;;;;;22.05;12.85;;;;;;;1.65;100.00;100054.17;1773627;79;21465;-64
2021/03/03 02:05:18;;;;;;;21.50;11.88;;;;;;;1.63;100.00;100058.00;1777677;79;21045;-64
2021/03/03 02:08:01;;;;;;;19.77;12.00;;;;;;;1.63;100.00;100063.20;1774582;79;21564;-64
2021/03/03 02:10:57;;;;;;;20.90;12.65;;;;;;;1.61;100.00;100059.64;1772863;79;21161;-64
2021/03/03 02:13:38;;;;;;;21.80;11.90;;;;;;;1.61;100.00;100058.34;1794702;78;21239;-63
2021/03/03 02:16:09;;;;;;;17.75;11.20;;;;;;;1.61;100.00;100054.45;1777136;79;21255;-63
2021/03/03 02:18:43;;;;;;;19.32;11.80;;;;;;;1.63;100.00;100059.72;1753685;79;21477;-63
2021/03/03 02:21:36;;;;;;;20.32;12.30;;;;;;;1.62;100.00;100054.92;1788268;78;21038;-64
2021/03/03 02:24:14;;;;;;;19.45;12.40;;;;;;;1.63;100.00;100061.91;1798544;78;21002;-65
2021/03/03 02:26:47;;;;;;;18.85;11.85;;;;;;;1.63;100.00;100061.02;1755779;80;20940;-65
2021/03/03 02:29:30;;;;;;;19.50;11.60;;;;;;;1.58;100.00;100068.20;1802007;78;21133;-64
2021/03/03 02:32:02;;;;;;;18.30;11.20;;;;;;;1.57;100.00;100065.13;1774547;79;21022;-65
2021/03/03 02:34:34;;;;;;;20.85;12.37;;;;;;;1.56;100.00;100065.95;1785872;78;21548;-65
2021/03/03 02:37:05;;;;;;;18.73;11.90;;;;;;;1.56;100.00;100061.16;1782731;79;21528;-64
2021/03/03 02:39:38;;;;;;;21.42;12.05;;;;;;;1.51;100.00;100063.97;1789757;78;21054;-66
2021/03/03 02:42:09;;;;;;;20.32;11.73;;;;;;;1.50;100.00;100066.09;1745390;81;21341;-66
2021/03/03 02:44:39;;;;;;;18.98;11.22;;;;;;;1.54;100.00;100074.50;1788309;78;20951;-66
2021/03/03 02:47:13;;;;;;;20.65;11.50;;;;;;;1.54;100.00;100070.60;1785929;78;20947;-66
2021/03/03 02:49:48;;;;;;;;;;;;;;;1.52;100.00;100073.55;1770466;79;21093;-67
2021/03/03 02:52:27;;;;;;;19.32;11.35;;;;;;;1.46;100.00;100074.16;1791536;78;20149;-67
2021/03/03 02:54:54;;;;;;;19.02;11.70;;;;;;;1.42;100.00;100075.22;1795511;78;22349;-67
2021/03/03 02:57:28;;;;;;;18.27;12.00;;;;;;;1.41;100.00;100078.23;1781151;78;20951;-67
2021/03/03 02:59:59;;;;;;;20.20;11.08;;;;;;;1.39;100.00;100079.88;1772500;79;20963;-65
2021/03/03 03:02:31;;;;;;;19.77;12.13;;;;;;;1.38;100.00;100072.01;1750050;79;21583;-65
2021/03/03 03:05:20;;;;;;;19.60;11.60;;;;;;;1.38;100.00;100078.09;1788794;79;20970;-67
2021/03/03 03:08:10;;;;;;;18.35;11.50;;;;;;;1.34;100.00;100083.09;1796047;79;21017;-67
2021/03/03 03:11:09;;;;;;;18.75;11.80;;;;;;;1.28;100.00;100080.22;1762150;79;20947;-65
2021/03/03 03:14:09;;;;;;;20.35;12.25;;;;;;;1.25;100.00;100082.27;1772438;81;20938;-67
2021/03/03 03:16:44;;;;;;;22.40;12.37;;;;;;;1.24;100.00;100097.38;1779705;79;20903;-66
2021/03/03 03:19:19;;;;;;;22.90;12.43;;;;;;;1.22;100.00;100096.02;1801893;79;21061;-65
2021/03/03 03:21:50;;;;;;;21.02;12.65;;;;;;;1.21;100.00;100089.03;1782269;79;21188;-66
2021/03/03 03:24:21;;;;;;;20.95;12.10;;;;;;;1.19;100.00;100090.67;1772610;79;20994;-66
2021/03/03 03:26:52;;;;;;;16.93;10.88;;;;;;;1.20;100.00;100096.76;1774470;79;21525;-66
2021/03/03 03:29:23;;;;;;;20.20;12.33;;;;;;;1.19;100.00;100098.47;1774712;79;21037;-66
2021/03/03 03:31:55;;;;;;;22.45;12.45;;;;;;;1.18;100.00;100101.00;1745312;81;21536;-66
2021/03/03 03:34:25;;;;;;;19.07;11.50;;;;;;;1.17;100.00;100096.62;1789633;79;21378;-66
2021/03/03 03:36:56;;;;;;;18.87;10.78;;;;;;;1.17;100.00;100093.61;1779713;78;20947;-66
2021/03/03 03:39:26;;;;;;;18.73;11.88;;;;;;;1.17;100.00;100096.20;1802479;78;21441;-66
2021/03/03 03:41:56;;;;;;;18.50;11.38;;;;;;;1.16;100.00;100104.83;1804213;78;20923;-66
2021/03/03 03:44:35;;;;;;;18.95;12.05;;;;;;;1.13;100.00;100105.98;1801917;78;21097;-66
2021/03/03 03:49:52;;;;;;;17.77;12.63;;;;;;;1.12;100.00;100100.30;1784794;77;27900;-66
2021/03/03 03:52:22;;;;;;;19.82;11.97;;;;;;;1.10;100.00;100102.35;1747260;80;23067;-66
2021/03/03 03:54:53;;;;;;;18.70;11.20;;;;;;;1.14;100.00;100101.27;1776689;79;22250;-67
2021/03/03 03:57:23;;;;;;;19.20;11.22;;;;;;;1.10;100.00;100098.05;1777664;79;20946;-66
2021/03/03 03:59:53;;;;;;;18.07;11.30;;;;;;;1.10;100.00;100099.75;1776627;79;20891;-63
2021/03/03 04:02:26;;;;;;;17.87;11.10;;;;;;;1.14;100.00;100095.17;1746543;80;21492;-64
2021/03/03 04:04:57;;;;;;;18.75;11.70;;;;;;;1.09;100.00;100105.36;1766125;80;20986;-63
2021/03/03 04:07:30;;;;;;;16.55;10.65;;;;;;;1.08;100.00;100110.08;1748295;80;21195;-63
2021/03/03 04:09:59;;;;;;;18.25;11.08;;;;;;;1.07;100.00;100107.41;1750192;80;21539;-64
2021/03/03 04:12:29;;;;;;;18.45;11.28;;;;;;;1.04;100.00;100105.97;1748260;80;21005;-64
2021/03/03 04:15:05;;;;;;;19.00;11.57;;;;;;;1.03;100.00;100110.68;1749947;80;21483;-64
2021/03/03 04:17:37;;;;;;;18.37;11.05;;;;;;;1.00;100.00;100124.83;1758001;80;20930;-65
2021/03/03 04:20:10;;;;;;;20.80;11.40;;;;;;;0.97;100.00;100120.38;1776563;79;21400;-66
2021/03/03 04:22:40;;;;;;;15.68;10.18;;;;;;;0.97;100.00;100119.48;1778597;80;20950;-64
2021/03/03 04:25:15;;;;;;;17.50;10.65;;;;;;;0.94;100.00;100118.49;1778161;79;20930;-62
2021/03/03 04:27:44;;;;;;;16.35;10.80;;;;;;;0.95;100.00;100116.81;1773559;79;21254;-63
2021/03/03 04:30:16;;;;;;;16.65;10.63;;;;;;;0.90;100.00;100119.57;1750110;80;21653;-63
2021/03/03 04:32:47;;;;;;;18.37;10.05;;;;;;;0.89;100.00;100131.67;1746515;80;22001;-63
2021/03/03 04:35:17;;;;;;;16.52;10.55;;;;;;;0.88;100.00;100131.19;1776460;79;20990;-62
2021/03/03 04:37:49;;;;;;;15.63;10.07;;;;;;;0.87;100.00;100135.02;1778789;80;20934;-63
2021/03/03 04:40:19;;;;;;;20.72;10.75;;;;;;;0.93;100.00;100131.41;1778617;80;21195;-63
2021/03/03 04:42:51;;;;;;;18.80;10.50;;;;;;;0.94;100.00;100130.59;1777508;79;22073;-63
2021/03/03 04:45:21;;;;;;;18.57;11.22;;;;;;;0.91;100.00;100135.64;1778327;79;21507;-63
2021/03/03 04:47:51;;;;;;;16.90;10.20;;;;;;;0.90;100.00;100136.05;1779143;79;21001;-62
2021/03/03 04:50:21;;;;;;;14.38;9.13;;;;;;;0.92;100.00;100142.61;1782655;80;20922;-62
2021/03/03 04:52:52;;;;;;;15.78;9.35;;;;;;;0.92;100.00;100150.00;1782344;80;20950;-61
2021/03/03 04:55:22;;;;;;;17.85;9.78;;;;;;;0.94;100.00;100151.38;1782860;80;20918;-62
2021/03/03 04:57:52;;;;;;;15.10;9.68;;;;;;;0.94;100.00;100154.86;1784629;79;21194;-62
2021/03/03 05:00:23;;;;;;;15.63;8.93;;;;;;;0.92;100.00;100165.58;1784505;80;21068;-62
2021/03/03 05:02:52;;;;;;;14.50;9.23;;;;;;;0.92;100.00;100160.39;1779625;79;21017;-62
2021/03/03 05:05:23;;;;;;;13.13;8.95;;;;;;;0.93;100.00;100164.77;1720009;82;20981;-62
2021/03/03 05:07:54;;;;;;;13.25;8.75;;;;;;;0.91;100.00;100169.41;1710197;82;20933;-62
2021/03/03 05:10:26;;;;;;;14.13;9.05;;;;;;;0.90;100.00;100171.52;1709999;82;21277;-64
2021/03/03 05:12:58;;;;;;;14.10;9.33;;;;;;;0.92;100.00;100168.19;1713264;82;21137;-62
2021/03/03 05:15:28;;;;;;;15.08;9.13;;;;;;;0.92;100.00;100168.19;1692466;83;21178;-62
2021/03/03 05:17:58;;;;;;;11.88;8.50;;;;;;;0.92;100.00;100168.19;1703445;84;21088;-61
2021/03/03 05:20:27;;;;;;;14.07;8.88;;;;;;;0.93;100.00;100172.56;1691341;84;20963;-62
2021/03/03 05:22:57;;;;;;;15.08;8.75;;;;;;;0.94;100.00;100181.25;1722388;81;22359;-61
2021/03/03 05:25:27;;;;;;;13.98;8.20;;;;;;;0.96;100.00;100178.75;1718657;83;21201;-63
2021/03/03 05:27:57;;;;;;;12.65;8.58;;;;;;;0.94;100.00;100183.44;1710851;82;21163;-62
2021/03/03 05:30:28;;;;;;;14.33;8.45;;;;;;;0.98;100.00;100183.62;1695877;83;21546;-62
2021/03/03 05:32:58;;;;;;;13.13;8.63;;;;;;;0.99;100.00;100179.80;1722449;81;21120;-62
2021/03/03 05:35:29;;;;;;;15.40;9.68;;;;;;;1.01;100.00;100190.26;1692030;84;22202;-63
2021/03/03 05:37:59;;;;;;;12.35;8.63;;;;;;;1.02;100.00;100192.93;1704794;82;20949;-63
2021/03/03 05:40:29;;;;;;;12.37;7.85;;;;;;;1.01;100.00;100194.16;1692058;83;20959;-63
2021/03/03 05:42:59;;;;;;;11.55;8.13;;;;;;;1.01;100.00;100196.34;1704452;82;21543;-63
2021/03/03 05:45:29;;;;;;;11.93;8.28;;;;;;;1.02;100.00;100205.03;1719220;83;21061;-62
2021/03/03 05:47:59;;;;;;;14.28;9.35;;;;;;;1.02;100.00;100210.23;1733442;82;21263;-62
2021/03/03 05:50:30;;;;;;;12.50;7.60;;;;;;;1.03;100.00;100210.30;1720720;83;20966;-62
2021/03/03 05:52:59;;;;;;;14.03;9.05;;;;;;;1.06;100.00;100217.35;1733271;81;20906;-63
2021/03/03 05:55:29;;;;;;;11.78;8.00;;;;;;;1.09;100.00;100218.39;1673188;83;21080;-64
2021/03/03 05:57:58;;;;;;;11.88;8.28;;;;;;;1.08;100.00;100223.11;1709175;82;21495;-63
2021/03/03 06:00:29;;;;;;;12.23;7.67;;;;;;;1.10;100.00;100223.17;1700691;83;21209;-63
2021/03/03 06:02:59;;;;;;;11.57;7.92;;;;;;;1.10;100.00;100224.48;1717874;82;21463;-63
2021/03/03 06:05:28;;;;;;;12.03;8.70;;;;;;;1.11;100.00;100236.66;1708470;83;21137;-63
2021/03/03 06:07:59;;;;;;;14.58;8.00;;;;;;;1.13;100.00;100228.52;1733402;82;20938;-63
2021/03/03 06:10:29;;;;;;;10.55;7.75;;;;;;;1.13;100.00;100238.51;1720771;83;21056;-64
2021/03/03 06:12:58;;;;;;;11.48;8.18;;;;;;;1.15;100.00;100239.88;1731522;82;21382;-63
2021/03/03 06:15:28;;;;;;;13.10;8.25;;;;;;;1.19;100.00;100236.20;1690967;83;21025;-63
2021/03/03 06:17:58;;;;;;;10.15;7.15;;;;;;;1.20;100.00;100239.70;1716663;83;21021;-62
2021/03/03 06:20:28;;;;;;;11.03;7.75;;;;;;;1.20;100.00;100237.09;1749517;81;21025;-62
2021/03/03 06:23:17;;;;;;;11.60;7.53;;;;;;;1.25;100.00;100233.02;1737379;82;21602;-62
2021/03/03 06:25:48;;;;;;;12.50;7.83;;;;;;;1.24;100.00;100233.83;1719503;82;21197;-63
2021/03/03 06:28:41;;;;;;;12.50;8.10;;;;;;;1.23;100.00;100234.64;1710384;82;21113;-64
2021/03/03 06:31:35;;;;;;;9.85;7.08;;;;;;;1.22;100.00;100238.95;1720582;82;20954;-63
2021/03/03 06:34:21;;;;;;;11.35;7.22;;;;;;;1.20;100.00;100237.98;1733182;82;20996;-66
2021/03/03 06:37:03;;;;;;;12.30;7.60;;;;;;;1.21;100.00;100240.18;1739211;82;21056;-66
2021/03/03 06:39:35;;;;;;;10.00;7.08;;;;;;;1.23;100.00;100245.04;1722306;82;22196;-65
2021/03/03 06:42:10;;;;;;;9.50;7.05;;;;;;;1.21;100.00;100237.58;1709956;82;20949;-65
2021/03/03 06:44:57;;;;;;;10.20;7.20;;;;;;;1.20;100.00;100242.30;1725207;81;21767;-64
2021/03/03 06:47:26;;;;;;;12.37;7.10;;;;;;;1.20;100.00;100250.09;1717868;82;21057;-63
2021/03/03 06:50:00;;;;;;;11.25;7.65;;;;;;;1.25;100.00;100251.20;1711446;81;20978;-64
2021/03/03 06:52:42;;;;;;;12.53;7.10;;;;;;;1.28;100.00;100247.86;1752172;81;21352;-64
2021/03/03 06:55:13;;;;;;;11.55;7.03;;;;;;;1.33;100.00;100251.16;1755035;80;21068;-65
2021/03/03 06:57:42;;;;;;;11.05;7.22;;;;;;;1.35;100.00;100256.44;1712885;81;21194;-65
2021/03/03 07:00:12;;;;;;;9.98;6.80;;;;;;;1.37;100.00;100256.98;1783698;79;21175;-65
2021/03/03 07:02:43;;;;;;;9.35;6.58;;;;;;;1.37;100.00;100258.29;1778915;78;21059;-62
2021/03/03 07:05:15;;;;;;;13.90;7.62;;;;;;;1.41;100.00;100255.02;1777064;79;22144;-62
2021/03/03 07:07:47;;;;;;;11.12;7.10;;;;;;;1.43;100.00;100259.03;1779792;78;21142;-63
2021/03/03 07:10:17;;;;;;;12.88;7.03;;;;;;;1.44;100.00;100272.51;1728783;80;20997;-64
2021/03/03 07:12:49;;;;;;;10.72;7.47;;;;;;;1.47;100.00;100260.95;1660885;83;20988;-64
2021/03/03 07:15:18;;;;;;;10.65;7.08;;;;;;;1.51;100.00;100252.48;1764350;81;21009;-64
2021/03/03 07:17:48;;;;;;;11.60;7.20;;;;;;;1.54;100.00;100263.02;1764218;79;21550;-64
2021/03/03 07:20:17;;;;;;;10.30;7.12;;;;;;;1.53;100.00;100256.94;1768129;79;20996;-64
2021/03/03 07:22:49;;;;;;;11.73;6.97;;;;;;;1.56;100.00;100260.98;1765927;79;20997;-63
2021/03/03 07:25:20;;;;;;;9.23;6.40;;;;;;;1.56;100.00;100262.28;1771007;79;21006;-64
2021/03/03 07:27:51;;;;;;;;;;;;;;;1.54;100.00;100252.62;1794784;79;22715;-64
2021/03/03 07:30:25;;;;;;;8.33;5.50;;;;;;;1.56;100.00;100250.58;1790872;79;21426;-63
2021/03/03 07:32:55;;;;;;;9.83;6.42;;;;;;;1.54;100.00;100253.52;1779501;78;20954;-64
2021/03/03 07:35:26;;;;;;;9.60;6.30;;;;;;;1.55;100.00;100257.89;1786679;79;21140;-65
2021/03/03 07:37:57;;;;;;;9.10;5.83;;;;;;;1.63;100.00;100265.17;1782158;78;21582;-64
2021/03/03 07:40:30;;;;;;;8.15;5.70;;;;;;;1.64;100.00;100266.95;1727148;81;20982;-68
2021/03/03 07:43:01;;;;;;;8.63;5.67;;;;;;;1.65;100.00;100276.12;1728342;83;21191;-64
2021/03/03 07:45:37;;;;;;;7.70;5.03;;;;;;;1.67;100.00;100275.78;1767050;79;20942;-65
2021/03/03 07:48:11;;;;;;;9.65;6.47;;;;;;;1.73;100.00;100272.58;1795628;79;21009;-66
2021/03/03 07:50:42;;;;;;;10.88;5.90;;;;;;;1.77;100.00;100272.79;1781173;79;20887;-67
2021/03/03 07:53:13;;;;;;;8.50;6.00;;;;;;;1.82;100.00;100279.09;1757771;80;20910;-65
2021/03/03 07:55:42;;;;;;;9.40;6.47;;;;;;;1.90;100.00;100278.19;1764564;80;22044;-64
2021/03/03 07:58:12;;;;;;;8.08;5.97;;;;;;;1.89;100.00;100278.97;1756012;80;21554;-66
2021/03/03 08:00:43;;;;;;;11.25;5.83;;;;;;;1.86;100.00;100286.23;1786715;80;20922;-65
2021/03/03 08:03:13;;;;;;;11.12;7.08;;;;;;;1.88;100.00;100283.28;1786747;80;21492;-64
2021/03/03 08:05:45;;;;;;;10.35;6.62;;;;;;;1.86;100.00;100286.23;1780384;80;21009;-65
2021/03/03 08:08:26;;;;;;;8.93;6.22;;;;;;;1.85;100.00;100290.06;1755538;80;21363;-65
2021/03/03 08:11:06;;;;;;;9.70;5.85;;;;;;;1.84;100.00;100291.77;1722198;81;21508;-64
2021/03/03 08:13:45;;;;;;;8.08;5.35;;;;;;;1.83;100.00;100291.70;1708999;83;21171;-65
2021/03/03 08:16:11;;;;;;;7.60;5.37;;;;;;;1.79;100.00;100285.46;1720680;82;21079;-66
2021/03/03 08:18:54;;;;;;;9.10;5.78;;;;;;;1.77;100.00;100287.51;1719643;83;21126;-67
2021/03/03 08:21:27;;;;;;;10.10;5.72;;;;;;;1.78;100.00;100285.39;1727003;82;21216;-63
2021/03/03 08:24:00;;;;;;;7.83;5.33;;;;;;;1.77;100.00;100294.91;1721759;82;21568;-63
2021/03/03 08:26:34;;;;;;;10.60;5.80;;;;;;;1.78;100.00;100299.28;1713529;82;21539;-62
2021/03/03 08:29:22;;;;;;;10.63;5.47;;;;;;;1.79;100.00;100302.38;1720700;83;21481;-63
2021/03/03 08:31:53;;;;;;;8.55;5.58;;;;;;;1.83;100.00;100303.41;1738173;81;21549;-64
2021/03/03 08:34:23;;;;;;;9.03;5.30;;;;;;;1.85;100.00;100301.35;1752145;81;21485;-64
2021/03/03 08:36:54;;;;;;;6.95;5.05;;;;;;;1.92;100.00;100300.38;1752260;82;21077;-64
2021/03/03 08:39:24;;;;;;;6.10;4.83;;;;;;;1.96;100.00;100294.48;1738810;81;21066;-63
2021/03/03 08:41:54;;;;;;;8.13;5.00;;;;;;;2.00;100.00;100296.00;1716752;82;20945;-62
2021/03/03 08:44:45;;;;;;;8.83;5.15;;;;;;;2.03;100.00;100301.34;1716799;82;21067;-63
2021/03/03 08:47:15;;;;;;;8.48;5.47;;;;;;;2.08;100.00;100292.03;1698721;83;22059;-63
2021/03/03 08:49:44;;;;;;;9.00;5.65;;;;;;;2.17;100.00;100300.67;1719217;82;21081;-63
2021/03/03 08:52:14;;;;;;;9.28;5.78;;;;;;;2.19;100.00;100304.23;1719241;82;20946;-62
2021/03/03 08:54:46;;;;;;;8.00;5.22;;;;;;;2.17;100.00;100294.16;1719338;82;20903;-65
2021/03/03 08:57:32;;;;;;;8.03;5.45;;;;;;;2.17;100.00;100290.27;1711609;82;25522;-62
2021/03/03 09:00:04;;;;;;;8.60;5.53;;;;;;;2.19;100.00;100290.81;1710059;82;21518;-62
2021/03/03 09:02:39;;;;;;;10.03;6.15;;;;;;;2.22;100.00;100284.85;1719164;82;20959;-64
2021/03/03 09:05:12;;;;;;;9.43;5.45;;;;;;;2.19;100.00;100300.33;1706688;82;21180;-64
2021/03/03 09:07:40;;;;;;;9.08;5.37;;;;;;;2.21;100.00;100301.30;1704814;82;21592;-63
2021/03/03 09:10:16;;;;;;;10.25;5.80;;;;;;;2.28;100.00;100307.25;1714474;82;21599;-63
2021/03/03 09:12:44;;;;;;;7.40;5.75;;;;;;;2.36;100.00;100307.19;1691493;83;21387;-60
2021/03/03 09:15:16;;;;;;;8.05;5.53;;;;;;;2.43;100.00;100303.17;1721576;82;20955;-63
2021/03/03 09:17:46;;;;;;;8.58;5.80;;;;;;;2.51;100.00;100309.20;1719414;83;21487;-62
2021/03/03 09:20:21;;;;;;;9.45;5.97;;;;;;;2.62;100.00;100301.86;1714140;82;20962;-63
2021/03/03 09:22:50;;;;;;;9.45;5.80;;;;;;;2.68;100.00;100296.91;1704202;82;21080;-65
2021/03/03 09:25:20;;;;;;;8.88;5.47;;;;;;;2.74;100.00;100303.69;1704239;82;21504;-65
2021/03/03 09:27:53;;;;;;;7.47;5.28;;;;;;;2.79;100.00;100299.98;1704263;82;25154;-66
2021/03/03 09:30:24;;;;;;;9.58;5.60;;;;;;;2.86;100.00;100306.38;1702344;83;21112;-65
2021/03/03 09:32:54;;;;;;;8.40;5.72;;;;;;;2.88;100.00;100306.92;1706860;82;21072;-65
2021/03/03 09:35:31;;;;;;;8.60;5.92;;;;;;;2.90;100.00;100310.89;1686642;82;20953;-65
2021/03/03 09:38:00;;;;;;;9.50;5.83;;;;;;;2.96;100.00;100316.38;1704180;82;21380;-63
2021/03/03 09:40:32;;;;;;;11.97;8.45;;;;;;;2.98;100.00;100319.52;1713444;82;21131;-64
2021/03/03 09:43:01;;;;;;;33.37;17.70;;;;;;;2.99;100.00;100312.18;1711013;83;21101;-63
2021/03/03 09:45:32;;;;;;;85.77;47.88;;;;;;;2.99;100.00;100314.78;1717803;82;21090;-64
2021/03/03 09:48:02;;;;;;;23.73;15.03;;;;;;;2.97;100.00;100312.52;1761623;80;20939;-63
2021/03/03 09:50:33;;;;;;;13.45;9.05;;;;;;;3.07;100.00;100308.17;1761571;80;21541;-65
2021/03/03 09:53:03;;;;;;;10.50;7.05;;;;;;;3.20;100.00;100307.38;1761656;80;21485;-64
2021/03/03 09:55:34;;;;;;;9.35;5.78;;;;;;;3.33;100.00;100309.29;1761612;80;20888;-64
2021/03/03 09:58:05;;;;;;;9.33;6.05;;;;;;;3.44;100.00;100301.90;1761695;80;21074;-63
2021/03/03 10:00:37;;;;;;;10.00;6.70;;;;;;;3.51;100.00;100305.23;1752641;80;21042;-64
2021/03/03 10:03:13;;;;;;;7.83;6.05;;;;;;;3.65;100.00;100306.67;1737447;81;21509;-64
2021/03/03 10:05:43;;;;;;;11.50;6.50;;;;;;;3.85;100.00;100313.12;1742994;80;21150;-66
2021/03/03 10:08:17;;;;;;;8.65;6.47;;;;;;;4.07;100.00;100310.09;1757277;80;21060;-66
2021/03/03 10:10:48;;;;;;;8.38;5.83;;;;;;;4.30;100.00;100307.48;1761362;80;21616;-66
2021/03/03 10:13:21;;;;;;;;;;;;;;;4.45;100.00;100310.66;1761071;80;20885;-65
2021/03/03 10:15:51;;;;;;;10.50;6.67;;;;;;;4.56;100.00;100309.73;1761587;80;21155;-66
2021/03/03 10:18:21;;;;;;;10.28;6.87;;;;;;;4.62;100.00;100296.89;1761402;80;21485;-66
2021/03/03 10:20:56;;;;;;;12.88;7.22;;;;;;;4.74;100.00;100288.22;1761442;80;21122;-66
2021/03/03 10:23:30;;;;;;;10.25;6.28;;;;;;;4.82;100.00;100291.09;1761399;80;21023;-66
2021/03/03 10:26:05;;;;;;;8.33;6.45;;;;;;;4.90;100.00;100287.91;1727699;80;20965;-66
2021/03/03 10:28:35;;;;;;;10.05;6.75;;;;;;;5.10;100.00;100283.35;1757998;80;21547;-64
2021/03/03 10:31:08;;;;;;;9.65;6.50;;;;;;;5.33;100.00;100282.42;1758941;80;21024;-64
2021/03/03 10:33:41;;;;;;;10.10;6.67;;;;;;;5.59;100.00;100277.13;1758099;80;20987;-65
2021/03/03 10:36:17;;;;;;;10.43;6.75;;;;;;;5.80;100.00;100267.36;1759771;80;20916;-68
2021/03/03 10:38:54;;;;;;;10.23;6.70;;;;;;;5.96;100.00;100270.94;1761103;80;21131;-66
2021/03/03 10:41:34;;;;;;;13.58;7.37;;;;;;;6.16;100.00;100265.44;1759416;80;21369;-67
2021/03/03 10:44:05;;;;;;;9.80;6.75;;;;;;;6.41;100.00;100261.36;1759408;80;21067;-67
2021/03/03 10:46:45;;;;;;;10.00;6.67;;;;;;;6.70;100.00;100253.44;1739080;80;21106;-66
2021/03/03 10:49:18;;;;;;;10.75;6.35;;;;;;;6.97;100.00;100253.27;1722635;81;21073;-66
2021/03/03 10:51:49;;;;;;;11.43;6.78;;;;;;;7.23;100.00;100257.05;1726374;81;21203;-68
2021/03/03 10:54:30;;;;;;;11.50;7.10;;;;;;;7.50;100.00;100258.14;1725789;81;21382;-67
2021/03/03 10:57:12;;;;;;;9.77;6.37;;;;;;;7.72;100.00;100253.41;1705573;81;20956;-65
2021/03/03 10:59:38;;;;;;;8.43;6.30;;;;;;;7.93;100.00;100249.95;1722410;81;21575;-66
2021/03/03 11:02:09;;;;;;;8.18;6.42;;;;;;;8.14;100.00;100241.24;1723250;81;21159;-65
2021/03/03 11:04:45;;;;;;;9.00;6.37;;;;;;;8.38;100.00;100233.00;1704064;81;21583;-64
2021/03/03 11:07:16;;;;;;;8.35;6.15;;;;;;;8.61;100.00;100230.84;1723971;81;21152;-64
2021/03/03 11:09:54;;;;;;;10.40;6.92;;;;;;;8.85;99.41;100230.41;1724629;81;20969;-63
2021/03/03 11:12:27;;;;;;;9.08;6.03;;;;;;;9.05;98.28;100226.41;1724507;81;20955;-62
2021/03/03 11:14:56;;;;;;;17.12;6.37;;;;;;;9.22;95.11;100225.80;1722988;81;21076;-64
2021/03/03 11:17:26;;;;;;;9.03;6.62;;;;;;;9.28;93.29;100218.00;1725342;81;21227;-65
2021/03/03 11:19:55;;;;;;;10.08;6.53;;;;;;;9.29;91.60;100214.08;1722406;81;22112;-64
2021/03/03 11:22:24;;;;;;;10.10;6.65;;;;;;;9.37;90.42;100216.83;1725336;82;21079;-67
2021/03/03 11:24:55;;;;;;;8.13;7.00;;;;;;;9.40;88.86;100214.24;1722106;81;20954;-64
2021/03/03 11:27:24;;;;;;;8.15;6.42;;;;;;;9.41;88.72;100210.31;1726283;81;21088;-63
2021/03/03 11:29:54;;;;;;;10.40;6.47;;;;;;;9.53;87.27;100199.55;1720429;80;21182;-63
2021/03/03 11:32:24;;;;;;;9.35;6.75;;;;;;;9.64;87.16;100199.27;1723084;81;21212;-64
2021/03/03 11:34:54;;;;;;;8.48;6.20;;;;;;;9.75;86.32;100191.96;1726544;81;21017;-64
2021/03/03 11:37:24;;;;;;;9.53;6.35;;;;;;;9.89;86.51;100185.99;1726342;81;21594;-64
2021/03/03 11:39:54;;;;;;;8.90;6.67;;;;;;;10.00;84.97;100183.98;1726314;81;21150;-63
2021/03/03 11:42:24;;;;;;;9.63;6.65;;;;;;;10.09;84.08;100183.20;1726347;81;21183;-63
2021/03/03 11:44:54;;;;;;;10.38;6.62;;;;;;;10.09;82.86;100177.50;1726354;81;22130;-63